createdAt,value
2017-06-21T00:00:04.964Z,14.6
2017-06-21T00:00:18.387Z,14.6
2017-06-21T00:00:31.833Z,14.67
2017-06-21T00:00:45.271Z,14.67
2017-06-21T00:00:58.747Z,14.71
2017-06-21T00:01:12.501Z,14.67
2017-06-21T00:01:24.918Z,14.61
2017-06-21T00:01:37.894Z,14.61
2017-06-21T00:01:50.856Z,14.63
2017-06-21T00:02:04.361Z,14.6
2017-06-21T00:02:17.294Z,14.7
2017-06-21T00:02:30.727Z,14.75
2017-06-21T00:02:44.230Z,14.66
2017-06-21T00:02:57.673Z,14.71
2017-06-21T00:03:11.161Z,14.7
2017-06-21T00:03:24.621Z,14.74
2017-06-21T00:03:38.098Z,14.75
2017-06-21T00:03:51.621Z,14.71
2017-06-21T00:04:04.612Z,14.75
2017-06-21T00:04:18.024Z,14.75
2017-06-21T00:04:31.521Z,14.69
2017-06-21T00:04:45.006Z,14.79
2017-06-21T00:04:57.915Z,14.77
2017-06-21T00:05:11.383Z,14.79
2017-06-21T00:05:24.802Z,14.7
2017-06-21T00:05:38.302Z,14.71
2017-06-21T00:05:51.703Z,14.74
2017-06-21T00:06:05.173Z,14.71
2017-06-21T00:06:18.707Z,14.69
2017-06-21T00:06:31.701Z,14.7
2017-06-21T00:06:45.234Z,14.63
2017-06-21T00:06:58.182Z,14.71
2017-06-21T00:07:11.634Z,14.75
2017-06-21T00:07:24.578Z,14.77
2017-06-21T00:07:37.518Z,14.71
2017-06-21T00:07:50.959Z,14.66
2017-06-21T00:08:04.384Z,14.64
2017-06-21T00:08:17.328Z,14.67
2017-06-21T00:08:30.229Z,14.66
2017-06-21T00:08:43.632Z,14.64
2017-06-21T00:08:57.073Z,14.7
2017-06-21T00:09:10.552Z,14.64
2017-06-21T00:09:24.029Z,14.64
2017-06-21T00:09:37.569Z,14.64
2017-06-21T00:09:50.537Z,14.61
2017-06-21T00:10:04.047Z,14.64
2017-06-21T00:10:16.973Z,14.61
2017-06-21T00:10:30.458Z,14.71
2017-06-21T00:10:43.412Z,14.7
2017-06-21T00:10:56.357Z,14.67
2017-06-21T00:11:09.300Z,14.69
2017-06-21T00:11:22.735Z,14.7
2017-06-21T00:11:35.691Z,14.63
2017-06-21T00:11:48.641Z,14.63
2017-06-21T00:12:02.267Z,14.69
2017-06-21T00:12:15.699Z,14.63
2017-06-21T00:12:29.211Z,14.69
2017-06-21T00:12:41.581Z,14.66
2017-06-21T00:12:54.539Z,14.67
2017-06-21T00:13:07.510Z,14.71
2017-06-21T00:13:21.046Z,14.66
2017-06-21T00:13:34.499Z,14.66
2017-06-21T00:13:47.952Z,14.69
2017-06-21T00:14:01.415Z,14.7
2017-06-21T00:14:14.351Z,14.71
2017-06-21T00:14:27.813Z,14.71
2017-06-21T00:14:40.756Z,14.7
2017-06-21T00:14:54.283Z,14.69
2017-06-21T00:15:07.798Z,14.71
2017-06-21T00:15:20.791Z,14.71
2017-06-21T00:15:34.279Z,14.74
2017-06-21T00:15:47.777Z,14.71
2017-06-21T00:16:00.705Z,14.7
2017-06-21T00:16:14.417Z,14.7
2017-06-21T00:16:27.873Z,14.69
2017-06-21T00:16:41.384Z,14.71
2017-06-21T00:16:54.846Z,14.66
2017-06-21T00:17:08.250Z,14.71
2017-06-21T00:17:21.660Z,14.75
2017-06-21T00:17:35.118Z,14.66
2017-06-21T00:17:48.560Z,14.66
2017-06-21T00:18:02.021Z,14.77
2017-06-21T00:18:15.506Z,14.69
2017-06-21T00:18:28.971Z,14.64
2017-06-21T00:18:42.454Z,14.71
2017-06-21T00:18:55.439Z,14.71
2017-06-21T00:19:08.899Z,14.7
2017-06-21T00:19:22.367Z,14.74
2017-06-21T00:19:34.755Z,14.71
2017-06-21T00:19:48.239Z,14.71
2017-06-21T00:20:01.643Z,14.71
2017-06-21T00:20:15.163Z,14.7
2017-06-21T00:20:28.688Z,14.75
2017-06-21T00:20:42.170Z,14.75
2017-06-21T00:20:55.620Z,14.67
2017-06-21T00:21:09.054Z,14.67
2017-06-21T00:21:22.499Z,14.71
2017-06-21T00:21:35.972Z,14.77
2017-06-21T00:21:49.469Z,14.71
2017-06-21T00:22:02.911Z,14.71
2017-06-21T00:22:15.875Z,14.71
2017-06-21T00:22:28.808Z,14.7
2017-06-21T00:22:42.255Z,14.71
2017-06-21T00:22:55.728Z,14.74
2017-06-21T00:23:09.177Z,14.69
2017-06-21T00:23:22.161Z,14.7
2017-06-21T00:23:35.105Z,14.71
2017-06-21T00:23:48.598Z,14.71
2017-06-21T00:24:02.054Z,14.74
2017-06-21T00:24:15.479Z,14.75
2017-06-21T00:24:28.979Z,14.71
2017-06-21T00:24:41.365Z,14.71
2017-06-21T00:24:54.854Z,14.7
2017-06-21T00:25:08.323Z,14.74
2017-06-21T00:25:21.755Z,14.79
2017-06-21T00:25:35.162Z,14.71
2017-06-21T00:25:48.630Z,14.7
2017-06-21T00:26:01.657Z,14.75
2017-06-21T00:26:15.189Z,14.67
2017-06-21T00:26:28.674Z,14.71
2017-06-21T00:26:41.628Z,14.74
2017-06-21T00:26:55.056Z,14.7
2017-06-21T00:27:07.961Z,14.77
2017-06-21T00:27:21.417Z,14.77
2017-06-21T00:27:34.883Z,14.79
2017-06-21T00:27:48.292Z,14.79
2017-06-21T00:28:01.783Z,14.69
2017-06-21T00:28:15.246Z,14.79
2017-06-21T00:28:28.735Z,14.7
2017-06-21T00:28:41.661Z,14.74
2017-06-21T00:28:55.077Z,14.75
2017-06-21T00:29:08.529Z,14.69
2017-06-21T00:29:21.991Z,14.77
2017-06-21T00:29:34.440Z,14.7
2017-06-21T00:29:47.876Z,14.79
2017-06-21T00:30:01.301Z,14.85
2017-06-21T00:30:14.216Z,14.79
2017-06-21T00:30:27.824Z,14.85
2017-06-21T00:30:41.347Z,14.8
2017-06-21T00:30:54.858Z,14.9
2017-06-21T00:31:08.377Z,14.82
2017-06-21T00:31:22.324Z,14.87
2017-06-21T00:31:35.790Z,14.87
2017-06-21T00:31:49.236Z,14.9
2017-06-21T00:32:02.705Z,14.8
2017-06-21T00:32:15.692Z,14.93
2017-06-21T00:32:28.687Z,14.93
2017-06-21T00:32:42.200Z,14.83
2017-06-21T00:32:55.651Z,14.8
2017-06-21T00:33:09.082Z,14.8
2017-06-21T00:33:22.036Z,14.83
2017-06-21T00:33:35.596Z,14.9
2017-06-21T00:33:49.073Z,14.8
2017-06-21T00:34:02.499Z,14.86
2017-06-21T00:34:15.389Z,14.83
2017-06-21T00:34:28.352Z,14.79
2017-06-21T00:34:41.322Z,14.77
2017-06-21T00:34:54.777Z,14.79
2017-06-21T00:35:07.685Z,14.83
2017-06-21T00:35:21.150Z,14.8
2017-06-21T00:35:34.098Z,14.79
2017-06-21T00:35:47.097Z,14.77
2017-06-21T00:36:00.025Z,14.8
2017-06-21T00:36:13.018Z,14.83
2017-06-21T00:36:26.465Z,14.77
2017-06-21T00:36:39.928Z,14.79
2017-06-21T00:36:53.370Z,14.82
2017-06-21T00:37:06.897Z,14.8
2017-06-21T00:37:20.382Z,14.86
2017-06-21T00:37:33.883Z,14.85
2017-06-21T00:37:47.352Z,14.86
2017-06-21T00:37:59.777Z,14.83
2017-06-21T00:38:13.225Z,14.8
2017-06-21T00:38:26.706Z,14.82
2017-06-21T00:38:39.653Z,14.77
2017-06-21T00:38:52.569Z,14.77
2017-06-21T00:39:06.017Z,14.86
2017-06-21T00:39:19.481Z,14.77
2017-06-21T00:39:32.910Z,14.8
2017-06-21T00:39:46.427Z,14.77
2017-06-21T00:39:59.881Z,14.82
2017-06-21T00:40:13.344Z,14.8
2017-06-21T00:40:26.777Z,14.82
2017-06-21T00:40:39.241Z,14.75
2017-06-21T00:40:52.179Z,14.74
2017-06-21T00:41:05.639Z,14.77
2017-06-21T00:41:19.069Z,14.66
2017-06-21T00:41:31.967Z,14.75
2017-06-21T00:41:45.498Z,14.69
2017-06-21T00:41:59.016Z,14.7
2017-06-21T00:42:12.419Z,14.69
2017-06-21T00:42:25.346Z,14.82
2017-06-21T00:42:38.840Z,14.85
2017-06-21T00:42:51.776Z,14.67
2017-06-21T00:43:05.268Z,14.67
2017-06-21T00:43:18.743Z,14.69
2017-06-21T00:43:32.265Z,14.71
2017-06-21T00:43:45.788Z,14.7
2017-06-21T00:43:59.225Z,14.74
2017-06-21T00:44:12.734Z,14.69
2017-06-21T00:44:26.210Z,14.79
2017-06-21T00:44:39.690Z,14.79
2017-06-21T00:44:53.185Z,14.8
2017-06-21T00:45:05.575Z,14.75
2017-06-21T00:45:18.980Z,14.7
2017-06-21T00:45:32.463Z,14.7
2017-06-21T00:45:46.007Z,14.71
2017-06-21T00:45:59.459Z,14.71
2017-06-21T00:46:12.936Z,14.69
2017-06-21T00:46:26.196Z,14.71
2017-06-21T00:46:39.646Z,14.7
2017-06-21T00:46:53.123Z,14.8
2017-06-21T00:47:06.582Z,14.7
2017-06-21T00:47:20.015Z,14.71
2017-06-21T00:47:33.470Z,14.69
2017-06-21T00:47:46.960Z,14.67
2017-06-21T00:48:00.415Z,14.74
2017-06-21T00:48:12.793Z,14.77
2017-06-21T00:48:26.216Z,14.71
2017-06-21T00:48:39.742Z,14.67
2017-06-21T00:48:52.150Z,14.71
2017-06-21T00:49:05.112Z,14.75
2017-06-21T00:49:18.076Z,14.8
2017-06-21T00:49:31.029Z,14.7
2017-06-21T00:49:44.515Z,14.7
2017-06-21T00:49:57.450Z,14.74
2017-06-21T00:50:10.916Z,14.79
2017-06-21T00:50:24.387Z,14.79
2017-06-21T00:50:37.379Z,14.74
2017-06-21T00:50:50.848Z,14.83
2017-06-21T00:51:05.526Z,14.71
2017-06-21T00:51:18.986Z,14.69
2017-06-21T00:51:32.397Z,14.7
2017-06-21T00:51:46.706Z,14.7
2017-06-21T00:51:59.694Z,14.71
2017-06-21T00:52:13.178Z,14.77
2017-06-21T00:52:26.667Z,14.79
2017-06-21T00:52:40.141Z,14.74
2017-06-21T00:52:53.601Z,14.77
2017-06-21T00:53:07.159Z,14.71
2017-06-21T00:53:20.676Z,14.82
2017-06-21T00:53:34.124Z,14.71
2017-06-21T00:53:47.644Z,14.77
2017-06-21T00:54:00.664Z,14.77
2017-06-21T00:54:13.626Z,14.74
2017-06-21T00:54:26.612Z,14.86
2017-06-21T00:54:40.047Z,14.7
2017-06-21T00:54:53.601Z,14.75
2017-06-21T00:55:06.576Z,14.8
2017-06-21T00:55:20.025Z,14.79
2017-06-21T00:55:33.467Z,14.64
2017-06-21T00:55:46.976Z,14.82
2017-06-21T00:55:59.425Z,14.69
2017-06-21T00:56:12.897Z,14.83
2017-06-21T00:56:26.338Z,14.69
2017-06-21T00:56:39.833Z,14.74
2017-06-21T00:56:53.246Z,14.74
2017-06-21T00:57:06.186Z,14.71
2017-06-21T00:57:19.660Z,14.77
2017-06-21T00:57:33.105Z,14.67
2017-06-21T00:57:46.058Z,14.75
2017-06-21T00:57:59.523Z,14.8
2017-06-21T00:58:12.412Z,14.8
2017-06-21T00:58:25.892Z,14.75
2017-06-21T00:58:39.272Z,14.77
2017-06-21T00:58:52.707Z,14.85
2017-06-21T00:59:05.121Z,14.7
2017-06-21T00:59:18.612Z,14.67
2017-06-21T00:59:32.331Z,14.67
2017-06-21T00:59:45.294Z,14.74
2017-06-21T00:59:58.738Z,14.7
2017-06-21T01:00:11.679Z,14.79
2017-06-21T01:00:24.622Z,14.77
2017-06-21T01:00:38.073Z,14.75
2017-06-21T01:00:51.510Z,14.74
2017-06-21T01:01:05.018Z,14.8
2017-06-21T01:01:17.993Z,14.71
2017-06-21T01:01:31.735Z,14.82
2017-06-21T01:01:44.671Z,14.71
2017-06-21T01:01:58.107Z,14.75
2017-06-21T01:02:11.555Z,14.8
2017-06-21T01:02:24.975Z,14.86
2017-06-21T01:02:38.536Z,14.8
2017-06-21T01:02:52.194Z,14.82
2017-06-21T01:03:05.694Z,14.69
2017-06-21T01:03:19.174Z,14.79
2017-06-21T01:03:32.643Z,14.79
2017-06-21T01:03:45.619Z,14.7
2017-06-21T01:03:59.085Z,14.71
2017-06-21T01:04:12.550Z,14.74
2017-06-21T01:04:25.482Z,14.74
2017-06-21T01:04:38.420Z,14.71
2017-06-21T01:04:51.367Z,14.74
2017-06-21T01:05:04.839Z,14.74
2017-06-21T01:05:17.718Z,14.69
2017-06-21T01:05:30.649Z,14.74
2017-06-21T01:05:44.143Z,14.7
2017-06-21T01:05:57.597Z,14.69
2017-06-21T01:06:10.555Z,14.79
2017-06-21T01:06:24.049Z,14.71
2017-06-21T01:06:37.567Z,14.71
2017-06-21T01:06:50.504Z,14.71
2017-06-21T01:07:03.999Z,14.77
2017-06-21T01:07:16.436Z,14.7
2017-06-21T01:07:29.867Z,14.67
2017-06-21T01:07:43.288Z,14.66
2017-06-21T01:07:56.850Z,14.71
2017-06-21T01:08:10.280Z,14.69
2017-06-21T01:08:23.194Z,14.77
2017-06-21T01:08:36.628Z,14.74
2017-06-21T01:08:50.054Z,14.64
2017-06-21T01:09:03.573Z,14.71
2017-06-21T01:09:17.007Z,14.69
2017-06-21T01:09:30.513Z,14.82
2017-06-21T01:09:43.971Z,14.75
2017-06-21T01:09:56.920Z,14.82
2017-06-21T01:10:09.374Z,14.71
2017-06-21T01:10:22.874Z,14.82
2017-06-21T01:10:35.787Z,14.64
2017-06-21T01:10:48.716Z,14.79
2017-06-21T01:11:01.068Z,14.83
2017-06-21T01:11:14.022Z,14.77
2017-06-21T01:11:27.459Z,14.86
2017-06-21T01:11:40.969Z,14.7
2017-06-21T01:11:54.431Z,14.7
2017-06-21T01:12:07.390Z,14.67
2017-06-21T01:12:20.867Z,14.75
2017-06-21T01:12:34.316Z,14.75
2017-06-21T01:12:47.708Z,14.64
2017-06-21T01:13:01.130Z,14.75
2017-06-21T01:13:14.592Z,14.67
2017-06-21T01:13:26.988Z,14.71
2017-06-21T01:13:40.473Z,14.79
2017-06-21T01:13:53.979Z,14.77
2017-06-21T01:14:07.450Z,14.7
2017-06-21T01:14:21.125Z,14.69
2017-06-21T01:14:34.068Z,14.66
2017-06-21T01:14:47.559Z,14.82
2017-06-21T01:15:01.015Z,14.77
2017-06-21T01:15:14.481Z,14.67
2017-06-21T01:15:27.414Z,14.77
2017-06-21T01:15:40.877Z,14.77
2017-06-21T01:15:53.855Z,14.77
2017-06-21T01:16:07.320Z,14.8
2017-06-21T01:16:20.789Z,14.79
2017-06-21T01:16:33.775Z,14.86
2017-06-21T01:16:47.006Z,14.8
2017-06-21T01:17:00.454Z,14.77
2017-06-21T01:17:13.402Z,14.82
2017-06-21T01:17:26.847Z,14.82
2017-06-21T01:17:39.799Z,14.79
2017-06-21T01:17:53.247Z,14.8
2017-06-21T01:18:06.157Z,14.77
2017-06-21T01:18:19.640Z,14.86
2017-06-21T01:18:33.125Z,14.82
2017-06-21T01:18:46.576Z,14.77
2017-06-21T01:19:00.042Z,14.83
2017-06-21T01:19:13.463Z,14.87
2017-06-21T01:19:26.402Z,14.83
2017-06-21T01:19:39.843Z,14.85
2017-06-21T01:19:53.309Z,14.82
2017-06-21T01:20:06.237Z,14.79
2017-06-21T01:20:19.146Z,14.82
2017-06-21T01:20:32.619Z,14.79
2017-06-21T01:20:44.996Z,14.82
2017-06-21T01:20:58.474Z,14.89
2017-06-21T01:21:11.921Z,14.82
2017-06-21T01:21:25.418Z,14.83
2017-06-21T01:21:38.917Z,14.82
2017-06-21T01:21:52.431Z,14.82
2017-06-21T01:22:05.369Z,14.8
2017-06-21T01:22:18.829Z,14.83
2017-06-21T01:22:32.311Z,14.82
2017-06-21T01:22:45.742Z,14.79
2017-06-21T01:22:59.158Z,14.83
2017-06-21T01:23:12.061Z,14.79
2017-06-21T01:23:25.496Z,14.75
2017-06-21T01:23:38.403Z,14.75
2017-06-21T01:23:51.875Z,14.79
2017-06-21T01:24:05.334Z,14.8
2017-06-21T01:24:18.709Z,14.77
2017-06-21T01:24:31.130Z,14.74
2017-06-21T01:24:44.574Z,14.71
2017-06-21T01:24:57.544Z,14.83
2017-06-21T01:25:09.968Z,14.66
2017-06-21T01:25:23.404Z,14.82
2017-06-21T01:25:36.912Z,14.79
2017-06-21T01:25:50.424Z,14.83
2017-06-21T01:26:04.017Z,14.66
2017-06-21T01:26:17.505Z,14.74
2017-06-21T01:26:30.984Z,14.85
2017-06-21T01:26:44.418Z,14.79
2017-06-21T01:26:57.936Z,14.77
2017-06-21T01:27:11.428Z,14.8
2017-06-21T01:27:24.889Z,14.77
2017-06-21T01:27:37.787Z,14.7
2017-06-21T01:27:51.264Z,14.75
2017-06-21T01:28:04.685Z,14.66
2017-06-21T01:28:17.635Z,14.71
2017-06-21T01:28:31.092Z,14.79
2017-06-21T01:28:44.060Z,14.8
2017-06-21T01:28:57.034Z,14.69
2017-06-21T01:29:10.439Z,14.77
2017-06-21T01:29:23.868Z,14.69
2017-06-21T01:29:36.775Z,14.75
2017-06-21T01:29:50.244Z,14.7
2017-06-21T01:30:03.670Z,14.8
2017-06-21T01:30:17.054Z,14.77
2017-06-21T01:30:29.463Z,14.8
2017-06-21T01:30:41.899Z,14.79
2017-06-21T01:30:55.353Z,14.8
2017-06-21T01:31:08.809Z,14.82
2017-06-21T01:31:21.737Z,14.69
2017-06-21T01:31:34.723Z,14.86
2017-06-21T01:31:47.914Z,14.75
2017-06-21T01:32:01.359Z,14.77
2017-06-21T01:32:14.343Z,14.8
2017-06-21T01:32:27.818Z,14.71
2017-06-21T01:32:41.341Z,14.7
2017-06-21T01:32:54.836Z,14.69
2017-06-21T01:33:07.216Z,14.66
2017-06-21T01:33:20.670Z,14.82
2017-06-21T01:33:34.101Z,14.7
2017-06-21T01:33:47.521Z,14.77
2017-06-21T01:34:00.448Z,14.77
2017-06-21T01:34:13.428Z,14.82
2017-06-21T01:34:26.869Z,14.79
2017-06-21T01:34:40.314Z,14.82
2017-06-21T01:34:53.814Z,14.79
2017-06-21T01:35:07.249Z,14.66
2017-06-21T01:35:20.697Z,14.67
2017-06-21T01:35:34.192Z,14.74
2017-06-21T01:35:47.698Z,14.71
2017-06-21T01:36:00.604Z,14.75
2017-06-21T01:36:13.547Z,14.85
2017-06-21T01:36:26.989Z,14.79
2017-06-21T01:36:39.865Z,14.83
2017-06-21T01:36:52.776Z,14.74
2017-06-21T01:37:06.241Z,14.77
2017-06-21T01:37:19.767Z,14.7
2017-06-21T01:37:32.712Z,14.83
2017-06-21T01:37:45.713Z,14.8
2017-06-21T01:37:58.672Z,14.79
2017-06-21T01:38:12.180Z,14.77
2017-06-21T01:38:25.626Z,14.79
2017-06-21T01:38:39.140Z,14.85
2017-06-21T01:38:52.068Z,14.74
2017-06-21T01:39:05.524Z,14.82
2017-06-21T01:39:19.017Z,14.79
2017-06-21T01:39:31.942Z,14.8
2017-06-21T01:39:45.400Z,14.8
2017-06-21T01:39:58.923Z,14.83
2017-06-21T01:40:12.419Z,14.85
2017-06-21T01:40:25.884Z,14.79
2017-06-21T01:40:39.382Z,14.79
2017-06-21T01:40:52.763Z,14.83
2017-06-21T01:41:05.669Z,14.82
2017-06-21T01:41:19.137Z,14.79
2017-06-21T01:41:32.579Z,14.85
2017-06-21T01:41:46.029Z,14.83
2017-06-21T01:41:58.927Z,14.94
2017-06-21T01:42:12.408Z,14.86
2017-06-21T01:42:25.893Z,14.89
2017-06-21T01:42:38.812Z,14.82
2017-06-21T01:42:52.308Z,14.82
2017-06-21T01:43:05.733Z,14.83
2017-06-21T01:43:19.231Z,14.97
2017-06-21T01:43:32.730Z,14.82
2017-06-21T01:43:45.653Z,14.9
2017-06-21T01:43:59.103Z,14.86
2017-06-21T01:44:12.039Z,14.89
2017-06-21T01:44:25.524Z,14.82
2017-06-21T01:44:39.042Z,14.8
2017-06-21T01:44:51.985Z,14.86
2017-06-21T01:45:05.490Z,14.8
2017-06-21T01:45:18.988Z,14.82
2017-06-21T01:45:32.446Z,14.98
2017-06-21T01:45:45.943Z,14.85
2017-06-21T01:45:59.394Z,14.89
2017-06-21T01:46:12.877Z,14.86
2017-06-21T01:46:26.386Z,14.82
2017-06-21T01:46:39.921Z,14.89
2017-06-21T01:46:53.100Z,14.85
2017-06-21T01:47:06.558Z,14.8
2017-06-21T01:47:20.005Z,14.83
2017-06-21T01:47:33.435Z,14.93
2017-06-21T01:47:45.801Z,14.77
2017-06-21T01:47:59.271Z,14.83
2017-06-21T01:48:12.731Z,14.85
2017-06-21T01:48:26.211Z,14.77
2017-06-21T01:48:39.689Z,14.77
2017-06-21T01:48:53.203Z,14.82
2017-06-21T01:49:06.130Z,14.8
2017-06-21T01:49:19.601Z,14.82
2017-06-21T01:49:32.563Z,14.79
2017-06-21T01:49:45.509Z,14.83
2017-06-21T01:49:58.958Z,14.8
2017-06-21T01:50:11.893Z,14.8
2017-06-21T01:50:24.315Z,14.79
2017-06-21T01:50:37.290Z,14.8
2017-06-21T01:50:50.710Z,14.79
2017-06-21T01:51:04.189Z,14.8
2017-06-21T01:51:17.628Z,14.85
2017-06-21T01:51:31.110Z,14.74
2017-06-21T01:51:44.582Z,14.79
2017-06-21T01:51:57.534Z,14.79
2017-06-21T01:52:11.037Z,14.85
2017-06-21T01:52:24.464Z,14.8
2017-06-21T01:52:37.896Z,14.83
2017-06-21T01:52:51.336Z,14.79
2017-06-21T01:53:04.842Z,14.82
2017-06-21T01:53:18.291Z,14.82
2017-06-21T01:53:31.685Z,14.83
2017-06-21T01:53:45.135Z,14.82
2017-06-21T01:53:58.630Z,14.79
2017-06-21T01:54:12.152Z,14.79
2017-06-21T01:54:25.085Z,14.82
2017-06-21T01:54:38.534Z,14.77
2017-06-21T01:54:52.055Z,14.79
2017-06-21T01:55:04.970Z,14.77
2017-06-21T01:55:17.970Z,14.82
2017-06-21T01:55:32.810Z,14.8
2017-06-21T01:55:46.230Z,14.85
2017-06-21T01:55:59.674Z,14.77
2017-06-21T01:56:12.580Z,14.85
2017-06-21T01:56:26.027Z,14.82
2017-06-21T01:56:39.505Z,14.8
2017-06-21T01:56:51.955Z,14.82
2017-06-21T01:57:05.431Z,14.82
2017-06-21T01:57:18.880Z,14.82
2017-06-21T01:57:32.318Z,14.74
2017-06-21T01:57:45.718Z,14.77
2017-06-21T01:57:58.658Z,14.8
2017-06-21T01:58:12.138Z,14.79
2017-06-21T01:58:25.030Z,14.82
2017-06-21T01:58:38.501Z,14.8
2017-06-21T01:58:52.033Z,14.79
2017-06-21T01:59:05.488Z,14.75
2017-06-21T01:59:18.971Z,14.77
2017-06-21T01:59:32.486Z,14.85
2017-06-21T01:59:45.988Z,14.85
2017-06-21T01:59:59.512Z,14.79
2017-06-21T02:00:12.998Z,14.77
2017-06-21T02:00:26.512Z,14.79
2017-06-21T02:00:39.967Z,14.83
2017-06-21T02:00:53.485Z,14.79
2017-06-21T02:01:06.419Z,14.82
2017-06-21T02:01:20.150Z,14.86
2017-06-21T02:01:33.643Z,14.77
2017-06-21T02:01:47.142Z,14.8
2017-06-21T02:02:00.954Z,14.83
2017-06-21T02:02:13.371Z,14.74
2017-06-21T02:02:26.857Z,14.85
2017-06-21T02:02:39.826Z,14.71
2017-06-21T02:02:53.342Z,14.8
2017-06-21T02:03:05.715Z,14.83
2017-06-21T02:03:18.668Z,14.8
2017-06-21T02:03:32.179Z,14.77
2017-06-21T02:03:45.082Z,14.77
2017-06-21T02:03:57.991Z,14.85
2017-06-21T02:04:11.458Z,14.71
2017-06-21T02:04:24.353Z,14.83
2017-06-21T02:04:37.819Z,14.79
2017-06-21T02:04:50.703Z,14.8
2017-06-21T02:05:03.593Z,14.83
2017-06-21T02:05:17.096Z,14.79
2017-06-21T02:05:30.578Z,14.75
2017-06-21T02:05:44.064Z,14.83
2017-06-21T02:05:57.550Z,14.8
2017-06-21T02:06:10.420Z,14.85
2017-06-21T02:06:23.885Z,14.82
2017-06-21T02:06:36.265Z,14.82
2017-06-21T02:06:49.762Z,14.82
2017-06-21T02:07:03.217Z,14.8
2017-06-21T02:07:16.127Z,14.85
2017-06-21T02:07:29.663Z,14.83
2017-06-21T02:07:42.596Z,14.8
2017-06-21T02:07:56.030Z,14.82
2017-06-21T02:08:09.438Z,14.82
2017-06-21T02:08:22.883Z,14.83
2017-06-21T02:08:36.377Z,14.77
2017-06-21T02:08:49.312Z,14.8
2017-06-21T02:09:02.792Z,14.8
2017-06-21T02:09:15.783Z,14.74
2017-06-21T02:09:29.221Z,14.82
2017-06-21T02:09:42.675Z,14.85
2017-06-21T02:09:56.169Z,14.82
2017-06-21T02:10:08.615Z,14.71
2017-06-21T02:10:22.086Z,14.82
2017-06-21T02:10:35.629Z,14.85
2017-06-21T02:10:49.083Z,14.82
2017-06-21T02:11:02.030Z,14.83
2017-06-21T02:11:15.526Z,14.85
2017-06-21T02:11:28.968Z,14.82
2017-06-21T02:11:41.881Z,14.83
2017-06-21T02:11:55.370Z,14.79
2017-06-21T02:12:08.378Z,14.83
2017-06-21T02:12:21.797Z,14.82
2017-06-21T02:12:34.770Z,14.79
2017-06-21T02:12:48.164Z,14.8
2017-06-21T02:13:01.056Z,14.71
2017-06-21T02:13:14.529Z,14.79
2017-06-21T02:13:28.017Z,14.82
2017-06-21T02:13:40.984Z,14.82
2017-06-21T02:13:53.912Z,14.83
2017-06-21T02:14:07.356Z,14.87
2017-06-21T02:14:20.912Z,14.8
2017-06-21T02:14:34.374Z,14.85
2017-06-21T02:14:48.164Z,14.82
2017-06-21T02:15:01.656Z,14.79
2017-06-21T02:15:15.094Z,14.79
2017-06-21T02:15:28.516Z,14.79
2017-06-21T02:15:41.395Z,14.82
2017-06-21T02:15:54.877Z,14.77
2017-06-21T02:16:07.812Z,14.8
2017-06-21T02:16:21.314Z,14.83
2017-06-21T02:16:34.245Z,14.79
2017-06-21T02:16:47.690Z,14.8
2017-06-21T02:17:01.168Z,14.85
2017-06-21T02:17:14.349Z,14.79
2017-06-21T02:17:27.272Z,14.82
2017-06-21T02:17:40.769Z,14.83
2017-06-21T02:17:54.277Z,14.8
2017-06-21T02:18:07.769Z,14.83
2017-06-21T02:18:20.747Z,14.8
2017-06-21T02:18:34.240Z,14.82
2017-06-21T02:18:47.676Z,14.8
2017-06-21T02:19:01.173Z,14.79
2017-06-21T02:19:14.612Z,14.79
2017-06-21T02:19:28.078Z,14.8
2017-06-21T02:19:41.589Z,14.79
2017-06-21T02:19:55.110Z,14.82
2017-06-21T02:20:08.035Z,14.85
2017-06-21T02:20:20.995Z,14.87
2017-06-21T02:20:34.444Z,14.82
2017-06-21T02:20:47.887Z,14.83
2017-06-21T02:21:01.306Z,14.8
2017-06-21T02:21:14.740Z,14.77
2017-06-21T02:21:28.229Z,14.83
2017-06-21T02:21:41.181Z,14.8
2017-06-21T02:21:54.603Z,14.8
2017-06-21T02:22:07.568Z,14.79
2017-06-21T02:22:20.527Z,14.83
2017-06-21T02:22:34.011Z,14.83
2017-06-21T02:22:47.460Z,14.82
2017-06-21T02:23:00.387Z,14.83
2017-06-21T02:23:13.789Z,14.82
2017-06-21T02:23:26.690Z,14.83
2017-06-21T02:23:40.144Z,14.85
2017-06-21T02:23:53.633Z,14.8
2017-06-21T02:24:07.116Z,14.83
2017-06-21T02:24:20.544Z,14.8
2017-06-21T02:24:33.531Z,14.79
2017-06-21T02:24:46.965Z,14.82
2017-06-21T02:25:00.436Z,14.87
2017-06-21T02:25:13.881Z,14.8
2017-06-21T02:25:27.308Z,14.8
2017-06-21T02:25:40.766Z,14.8
2017-06-21T02:25:54.195Z,14.93
2017-06-21T02:26:07.620Z,14.86
2017-06-21T02:26:21.089Z,14.82
2017-06-21T02:26:34.537Z,14.86
2017-06-21T02:26:48.046Z,14.8
2017-06-21T02:27:01.538Z,14.82
2017-06-21T02:27:14.977Z,14.85
2017-06-21T02:27:28.542Z,14.93
2017-06-21T02:27:41.511Z,14.8
2017-06-21T02:27:54.433Z,14.82
2017-06-21T02:28:07.868Z,14.8
2017-06-21T02:28:21.386Z,14.82
2017-06-21T02:28:34.886Z,14.79
2017-06-21T02:28:48.362Z,14.8
2017-06-21T02:29:01.254Z,14.8
2017-06-21T02:29:14.777Z,14.82
2017-06-21T02:29:28.268Z,14.85
2017-06-21T02:29:41.722Z,14.79
2017-06-21T02:29:54.657Z,14.83
2017-06-21T02:30:07.605Z,14.82
2017-06-21T02:30:21.119Z,14.8
2017-06-21T02:30:34.113Z,14.8
2017-06-21T02:30:46.525Z,14.83
2017-06-21T02:30:59.992Z,14.87
2017-06-21T02:31:13.465Z,14.8
2017-06-21T02:31:26.885Z,14.82
2017-06-21T02:31:39.797Z,14.82
2017-06-21T02:31:53.258Z,14.82
2017-06-21T02:32:06.741Z,14.8
2017-06-21T02:32:20.618Z,14.77
2017-06-21T02:32:34.055Z,14.85
2017-06-21T02:32:46.411Z,14.83
2017-06-21T02:32:59.823Z,14.93
2017-06-21T02:33:13.300Z,14.87
2017-06-21T02:33:26.754Z,14.87
2017-06-21T02:33:40.275Z,14.83
2017-06-21T02:33:53.301Z,14.93
2017-06-21T02:34:06.830Z,14.8
2017-06-21T02:34:20.270Z,14.83
2017-06-21T02:34:33.208Z,14.83
2017-06-21T02:34:46.155Z,14.8
2017-06-21T02:34:59.609Z,14.94
2017-06-21T02:35:12.578Z,14.85
2017-06-21T02:35:25.518Z,14.83
2017-06-21T02:35:38.947Z,14.83
2017-06-21T02:35:51.840Z,14.85
2017-06-21T02:36:05.294Z,14.8
2017-06-21T02:36:18.702Z,14.85
2017-06-21T02:36:32.133Z,14.8
2017-06-21T02:36:45.601Z,14.77
2017-06-21T02:36:59.124Z,14.83
2017-06-21T02:37:12.549Z,14.94
2017-06-21T02:37:25.454Z,14.82
2017-06-21T02:37:38.908Z,14.87
2017-06-21T02:37:52.354Z,14.83
2017-06-21T02:38:05.809Z,14.94
2017-06-21T02:38:19.230Z,14.82
2017-06-21T02:38:32.696Z,14.82
2017-06-21T02:38:46.211Z,14.89
2017-06-21T02:38:59.615Z,14.83
2017-06-21T02:39:13.089Z,14.86
2017-06-21T02:39:26.552Z,14.89
2017-06-21T02:39:40.006Z,14.82
2017-06-21T02:39:53.022Z,14.85
2017-06-21T02:40:06.475Z,14.85
2017-06-21T02:40:19.943Z,14.85
2017-06-21T02:40:33.413Z,14.9
2017-06-21T02:40:45.322Z,14.86
2017-06-21T02:40:58.795Z,14.9
2017-06-21T02:41:12.220Z,14.82
2017-06-21T02:41:25.642Z,14.9
2017-06-21T02:41:38.544Z,14.85
2017-06-21T02:41:52.011Z,14.85
2017-06-21T02:42:05.498Z,14.83
2017-06-21T02:42:18.491Z,14.9
2017-06-21T02:42:31.995Z,14.94
2017-06-21T02:42:45.418Z,14.86
2017-06-21T02:42:58.374Z,15.01
2017-06-21T02:43:11.821Z,14.94
2017-06-21T02:43:24.768Z,14.97
2017-06-21T02:43:38.190Z,14.93
2017-06-21T02:43:51.627Z,14.93
2017-06-21T02:44:04.597Z,14.9
2017-06-21T02:44:18.089Z,14.94
2017-06-21T02:44:31.610Z,14.94
2017-06-21T02:44:44.598Z,14.9
2017-06-21T02:44:58.033Z,14.97
2017-06-21T02:45:10.996Z,14.97
2017-06-21T02:45:24.394Z,14.9
2017-06-21T02:45:37.286Z,14.95
2017-06-21T02:45:50.791Z,14.87
2017-06-21T02:46:03.686Z,14.93
2017-06-21T02:46:16.622Z,14.86
2017-06-21T02:46:30.072Z,15.04
2017-06-21T02:46:43.485Z,14.97
2017-06-21T02:46:56.932Z,14.98
2017-06-21T02:47:10.408Z,14.9
2017-06-21T02:47:24.092Z,14.94
2017-06-21T02:47:37.513Z,14.94
2017-06-21T02:47:50.942Z,15
2017-06-21T02:48:03.909Z,14.89
2017-06-21T02:48:17.376Z,14.97
2017-06-21T02:48:30.276Z,14.93
2017-06-21T02:48:43.716Z,15
2017-06-21T02:48:57.109Z,14.94
2017-06-21T02:49:10.587Z,14.94
2017-06-21T02:49:24.051Z,14.95
2017-06-21T02:49:37.478Z,14.87
2017-06-21T02:49:50.936Z,15
2017-06-21T02:50:04.446Z,14.98
2017-06-21T02:50:17.871Z,14.97
2017-06-21T02:50:31.355Z,14.9
2017-06-21T02:50:44.814Z,15.02
2017-06-21T02:50:57.776Z,14.95
2017-06-21T02:51:11.234Z,15.01
2017-06-21T02:51:24.716Z,14.95
2017-06-21T02:51:38.189Z,15
2017-06-21T02:51:51.624Z,14.89
2017-06-21T02:52:05.094Z,15.02
2017-06-21T02:52:18.554Z,14.86